Time;durP1;ratioP1;P1;durP2;ratioP2;P2;SDS_P1;SDS_P2;PMS_P1;PMS_P2;Temp;Humidity;BMP_temperature;BMP_pressure;BME280_temperature;BME280_humidity;BME280_pressure;Samples;Min_cycle;Max_cycle;Signal;HPM_P1;HPM_P2
2023/10/29 00:00:01;;;;;;;6.50;2.45;;;;;;;;;;5042724;28;20056;-66
2023/10/29 00:02:27;;;;;;;5.70;2.63;;;;;;;;;;5042023;28;20492;-65
2023/10/29 00:04:53;;;;;;;3.70;2.15;;;;;;;;;;5007379;28;20076;-65
2023/10/29 00:07:19;;;;;;;7.63;2.60;;;;;;;;;;5042515;28;20048;-66
2023/10/29 00:09:45;;;;;;;4.00;2.33;;;;;;;;;;5042760;28;20671;-65
2023/10/29 00:12:11;;;;;;;5.03;2.55;;;;;;;;;;5041366;28;20059;-66
2023/10/29 00:14:37;;;;;;;4.70;2.47;;;;;;;;;;5042391;28;20478;-66
2023/10/29 00:17:03;;;;;;;5.03;2.95;;;;;;;;;;5024006;28;20048;-66
2023/10/29 00:19:31;;;;;;;4.13;2.90;;;;;;;;;;5042027;28;20080;-66
2023/10/29 00:21:57;;;;;;;6.32;3.10;;;;;;;;;;5024532;28;20513;-66
2023/10/29 00:24:23;;;;;;;11.50;3.17;;;;;;;;;;5024329;28;20051;-66
2023/10/29 00:26:50;;;;;;;5.80;2.95;;;;;;;;;;5042619;28;20045;-66
2023/10/29 00:29:16;;;;;;;7.85;2.95;;;;;;;;;;5040948;28;20045;-66
2023/10/29 00:31:42;;;;;;;5.85;3.40;;;;;;;;;;5041748;28;20396;-66
2023/10/29 00:34:08;;;;;;;8.13;2.95;;;;;;;;;;5041583;28;20129;-66
2023/10/29 00:36:34;;;;;;;6.18;3.13;;;;;;;;;;5041898;28;20498;-66
2023/10/29 00:39:00;;;;;;;6.40;3.13;;;;;;;;;;5041880;28;20037;-66
2023/10/29 00:41:26;;;;;;;6.43;2.90;;;;;;;;;;5041896;28;20043;-64
2023/10/29 00:43:52;;;;;;;2.80;2.40;;;;;;;;;;5036168;28;20087;-63
2023/10/29 00:46:19;;;;;;;5.13;2.40;;;;;;;;;;5041581;28;20037;-64
2023/10/29 00:48:46;;;;;;;3.63;2.60;;;;;;;;;;5041376;28;20036;-64
2023/10/29 00:51:12;;;;;;;5.32;2.70;;;;;;;;;;5041374;28;20443;-64
2023/10/29 00:53:38;;;;;;;5.53;3.35;;;;;;;;;;5041666;28;20124;-64
2023/10/29 00:56:05;;;;;;;6.82;2.63;;;;;;;;;;5041489;28;20048;-64
2023/10/29 00:58:32;;;;;;;5.60;3.00;;;;;;;;;;5040964;28;20071;-64
2023/10/29 01:00:58;;;;;;;7.88;2.95;;;;;;;;;;5041775;28;20494;-64
2023/10/29 01:03:24;;;;;;;5.75;2.75;;;;;;;;;;5041669;28;20052;-64
2023/10/29 01:05:50;;;;;;;5.03;2.67;;;;;;;;;;5041360;28;20037;-64
2023/10/29 01:08:16;;;;;;;7.90;2.63;;;;;;;;;;5042017;28;20044;-64
2023/10/29 01:10:42;;;;;;;4.80;2.72;;;;;;;;;;5041209;28;20044;-64
2023/10/29 01:13:08;;;;;;;5.55;2.80;;;;;;;;;;5040781;28;20049;-64
2023/10/29 01:15:35;;;;;;;4.13;2.97;;;;;;;;;;5041348;28;20045;-64
2023/10/29 01:18:01;;;;;;;5.57;2.92;;;;;;;;;;5041445;28;20114;-64
2023/10/29 01:20:27;;;;;;;9.05;2.88;;;;;;;;;;5023057;28;20090;-64
2023/10/29 01:22:54;;;;;;;5.45;2.85;;;;;;;;;;5041981;28;20033;-64
2023/10/29 01:25:21;;;;;;;10.30;2.83;;;;;;;;;;5041609;28;20044;-64
2023/10/29 01:27:47;;;;;;;5.50;3.20;;;;;;;;;;5022483;28;20049;-64
2023/10/29 01:30:13;;;;;;;5.88;3.53;;;;;;;;;;5023522;28;20088;-64
2023/10/29 01:32:39;;;;;;;6.15;3.38;;;;;;;;;;5040943;28;20041;-64
2023/10/29 01:35:06;;;;;;;5.75;3.67;;;;;;;;;;5041269;28;20029;-64
2023/10/29 01:37:32;;;;;;;6.53;3.50;;;;;;;;;;5041359;28;20132;-64
2023/10/29 01:39:58;;;;;;;6.72;3.95;;;;;;;;;;5023360;28;20183;-64
2023/10/29 01:42:24;;;;;;;5.30;3.80;;;;;;;;;;5040578;28;20036;-64
2023/10/29 01:44:50;;;;;;;6.25;3.25;;;;;;;;;;5041289;28;20041;-64
2023/10/29 01:47:16;;;;;;;7.18;3.20;;;;;;;;;;5040890;28;20175;-64
2023/10/29 01:49:42;;;;;;;8.15;3.15;;;;;;;;;;5040758;28;20128;-64
2023/10/29 01:52:08;;;;;;;8.75;3.47;;;;;;;;;;5041227;28;20078;-64
2023/10/29 01:54:35;;;;;;;6.43;2.95;;;;;;;;;;5042423;28;20406;-65
2023/10/29 01:57:01;;;;;;;9.73;3.05;;;;;;;;;;5044123;28;20072;-64
2023/10/29 01:59:29;;;;;;;7.47;2.55;;;;;;;;;;5040154;28;20046;-64
2023/10/29 02:01:55;;;;;;;5.45;2.80;;;;;;;;;;5027181;28;20048;-64
2023/10/29 02:04:26;;;;;;;3.53;2.30;;;;;;;;;;5044909;28;20049;-65
2023/10/29 02:06:55;;;;;;;5.38;2.20;;;;;;;;;;5044721;28;20080;-65
2023/10/29 02:09:21;;;;;;;11.43;2.58;;;;;;;;;;5044716;28;20041;-64
2023/10/29 02:11:47;;;;;;;4.28;1.85;;;;;;;;;;5025777;28;20451;-64
2023/10/29 02:14:13;;;;;;;5.28;2.20;;;;;;;;;;5026654;28;20057;-64
2023/10/29 02:16:39;;;;;;;6.25;2.25;;;;;;;;;;5044380;28;20044;-64
2023/10/29 02:19:05;;;;;;;3.75;2.20;;;;;;;;;;5044444;28;20058;-64
2023/10/29 02:21:31;;;;;;;6.18;1.90;;;;;;;;;;5044607;28;20049;-64
2023/10/29 02:24:00;;;;;;;5.95;1.90;;;;;;;;;;5044634;28;20337;-64
2023/10/29 02:26:26;;;;;;;4.95;1.90;;;;;;;;;;5044540;28;20129;-64
2023/10/29 02:28:53;;;;;;;7.18;2.05;;;;;;;;;;5043865;28;20179;-64
2023/10/29 02:31:21;;;;;;;5.07;1.73;;;;;;;;;;5044227;28;20040;-64
2023/10/29 02:33:48;;;;;;;4.35;1.70;;;;;;;;;;5044360;28;20071;-64
2023/10/29 02:36:14;;;;;;;4.93;1.75;;;;;;;;;;5044250;28;20452;-64
2023/10/29 02:38:42;;;;;;;3.72;1.75;;;;;;;;;;5044247;28;20041;-64
2023/10/29 02:41:08;;;;;;;4.05;1.73;;;;;;;;;;5043853;28;20049;-64
2023/10/29 02:43:34;;;;;;;3.88;1.67;;;;;;;;;;5043148;28;20041;-64
2023/10/29 02:46:00;;;;;;;5.35;1.75;;;;;;;;;;5044179;28;20060;-64
2023/10/29 02:48:27;;;;;;;4.88;1.63;;;;;;;;;;5043646;28;20138;-65
2023/10/29 02:50:54;;;;;;;3.33;1.67;;;;;;;;;;5043755;28;20053;-64
2023/10/29 02:53:20;;;;;;;4.75;1.60;;;;;;;;;;5043343;28;20228;-64
2023/10/29 02:55:46;;;;;;;4.93;1.52;;;;;;;;;;5026280;28;20052;-64
2023/10/29 02:58:12;;;;;;;5.88;1.30;;;;;;;;;;5042605;28;20056;-64
2023/10/29 03:00:39;;;;;;;4.63;1.55;;;;;;;;;;5044220;28;20099;-64
2023/10/29 03:03:05;;;;;;;3.03;1.23;;;;;;;;;;5008969;28;20107;-64
2023/10/29 03:05:31;;;;;;;2.50;1.10;;;;;;;;;;5042571;28;20483;-64
2023/10/29 03:07:59;;;;;;;6.97;1.20;;;;;;;;;;5043633;28;20049;-64
2023/10/29 03:10:25;;;;;;;3.20;1.17;;;;;;;;;;5038663;28;20450;-64
2023/10/29 03:12:51;;;;;;;3.92;1.10;;;;;;;;;;5042375;28;20291;-64
2023/10/29 03:15:17;;;;;;;4.38;1.33;;;;;;;;;;5043388;28;20491;-64
2023/10/29 03:17:43;;;;;;;4.45;1.50;;;;;;;;;;5043535;28;20052;-64
2023/10/29 03:20:09;;;;;;;6.93;1.20;;;;;;;;;;5042552;28;20041;-64
2023/10/29 03:22:35;;;;;;;6.72;1.15;;;;;;;;;;5043202;28;20033;-64
2023/10/29 03:25:01;;;;;;;4.43;1.00;;;;;;;;;;5025311;28;20056;-64
2023/10/29 03:27:27;;;;;;;3.30;1.17;;;;;;;;;;5042730;28;20045;-64
2023/10/29 03:29:53;;;;;;;5.72;1.00;;;;;;;;;;5024785;28;20056;-64
2023/10/29 03:32:19;;;;;;;3.00;1.08;;;;;;;;;;5043455;28;20045;-64
2023/10/29 03:34:45;;;;;;;6.60;1.13;;;;;;;;;;5042531;28;20037;-64
2023/10/29 03:37:11;;;;;;;8.65;1.67;;;;;;;;;;5042643;28;20114;-64
2023/10/29 03:39:37;;;;;;;6.82;1.30;;;;;;;;;;5042654;28;20049;-64
2023/10/29 03:42:04;;;;;;;7.07;1.80;;;;;;;;;;5027748;28;20459;-67
2023/10/29 03:44:30;;;;;;;4.43;1.20;;;;;;;;;;5043376;28;20118;-65
2023/10/29 03:46:56;;;;;;;2.08;0.80;;;;;;;;;;5025010;28;20437;-65
2023/10/29 03:49:22;;;;;;;6.80;0.98;;;;;;;;;;5025157;28;20045;-65
2023/10/29 03:51:48;;;;;;;3.30;1.20;;;;;;;;;;5042140;28;20048;-65
2023/10/29 03:54:14;;;;;;;2.33;0.75;;;;;;;;;;5042777;28;20565;-64
2023/10/29 03:56:40;;;;;;;2.10;0.73;;;;;;;;;;5041547;28;20045;-65
2023/10/29 03:59:06;;;;;;;3.22;0.75;;;;;;;;;;5042398;28;20047;-65
2023/10/29 04:01:33;;;;;;;3.42;0.82;;;;;;;;;;5043001;28;20041;-65
2023/10/29 04:03:59;;;;;;;2.65;0.68;;;;;;;;;;5042527;28;20577;-65
2023/10/29 04:06:25;;;;;;;1.33;0.75;;;;;;;;;;5042262;28;20114;-65
2023/10/29 04:08:51;;;;;;;2.13;0.70;;;;;;;;;;5042597;28;20118;-65
2023/10/29 04:11:17;;;;;;;6.00;1.20;;;;;;;;;;5007872;28;20689;-66
2023/10/29 04:13:44;;;;;;;1.77;0.70;;;;;;;;;;5023413;28;20060;-65
2023/10/29 04:16:10;;;;;;;4.80;0.93;;;;;;;;;;5042422;28;20059;-65
2023/10/29 04:18:36;;;;;;;2.10;0.73;;;;;;;;;;5041793;28;20041;-65
2023/10/29 04:21:08;;;;;;;2.92;0.70;;;;;;;;;;5037688;28;20131;-65
2023/10/29 04:23:36;;;;;;;1.67;0.60;;;;;;;;;;5029163;28;20049;-65
2023/10/29 04:26:02;;;;;;;2.72;1.00;;;;;;;;;;5042668;28;20067;-65
2023/10/29 04:28:28;;;;;;;3.35;0.70;;;;;;;;;;5041425;28;20478;-65
2023/10/29 04:30:55;;;;;;;2.80;0.50;;;;;;;;;;5042018;28;20041;-65
2023/10/29 04:33:22;;;;;;;1.40;0.88;;;;;;;;;;5024391;28;20479;-65
2023/10/29 04:35:48;;;;;;;2.42;0.70;;;;;;;;;;5042002;28;20044;-65
2023/10/29 04:38:14;;;;;;;3.75;0.55;;;;;;;;;;5041836;28;20044;-65
2023/10/29 04:40:40;;;;;;;2.00;0.82;;;;;;;;;;5042317;28;20155;-65
2023/10/29 04:43:06;;;;;;;5.35;1.02;;;;;;;;;;5041381;28;20418;-64
2023/10/29 04:45:32;;;;;;;4.32;0.60;;;;;;;;;;5042351;28;20052;-65
2023/10/29 04:47:58;;;;;;;3.97;0.60;;;;;;;;;;5041618;28;20041;-65
2023/10/29 04:50:24;;;;;;;3.20;0.30;;;;;;;;;;5041660;28;20418;-65
2023/10/29 04:52:50;;;;;;;2.88;0.52;;;;;;;;;;5041433;28;20167;-65
2023/10/29 04:55:16;;;;;;;1.52;0.30;;;;;;;;;;5041906;28;20045;-65
2023/10/29 04:57:42;;;;;;;2.85;0.40;;;;;;;;;;5040848;28;20045;-65
2023/10/29 05:00:09;;;;;;;3.03;0.40;;;;;;;;;;5041696;28;20037;-64
2023/10/29 05:02:35;;;;;;;2.50;0.40;;;;;;;;;;5023423;28;20045;-65
2023/10/29 05:05:01;;;;;;;2.28;0.47;;;;;;;;;;5040458;28;20041;-66
2023/10/29 05:07:28;;;;;;;2.47;0.50;;;;;;;;;;5023434;28;20079;-66
2023/10/29 05:09:53;;;;;;;2.45;0.55;;;;;;;;;;5041417;28;20037;-65
2023/10/29 05:12:19;;;;;;;3.22;0.70;;;;;;;;;;5040903;28;20088;-65
2023/10/29 05:14:50;;;;;;;2.90;0.60;;;;;;;;;;5040568;28;20138;-66
2023/10/29 05:17:16;;;;;;;6.50;0.50;;;;;;;;;;5041008;28;20045;-66
2023/10/29 05:19:44;;;;;;;4.28;0.70;;;;;;;;;;5040794;28;20044;-66
2023/10/29 05:22:10;;;;;;;4.60;0.60;;;;;;;;;;5041363;28;20545;-66
2023/10/29 05:24:36;;;;;;;2.42;0.68;;;;;;;;;;5041318;28;20037;-67
2023/10/29 05:27:03;;;;;;;2.08;0.43;;;;;;;;;;5041035;28;20041;-67
2023/10/29 05:29:29;;;;;;;1.45;0.50;;;;;;;;;;5042084;28;20146;-64
2023/10/29 05:31:55;;;;;;;1.67;0.80;;;;;;;;;;5045489;28;20176;-64
2023/10/29 05:34:21;;;;;;;3.05;0.52;;;;;;;;;;5039723;28;20040;-66
2023/10/29 05:36:47;;;;;;;2.70;0.60;;;;;;;;;;5044414;28;20041;-65
2023/10/29 05:39:14;;;;;;;3.63;0.70;;;;;;;;;;5043215;28;20055;-66
2023/10/29 05:41:40;;;;;;;6.13;0.82;;;;;;;;;;5024649;28;20732;-66
2023/10/29 05:44:06;;;;;;;3.90;0.60;;;;;;;;;;5043545;28;20045;-65
2023/10/29 05:46:33;;;;;;;3.65;0.50;;;;;;;;;;5044911;28;20041;-66
2023/10/29 05:48:59;;;;;;;2.50;0.60;;;;;;;;;;5042662;28;20619;-66
2023/10/29 05:51:25;;;;;;;6.00;0.63;;;;;;;;;;5043697;28;20138;-66
2023/10/29 05:53:51;;;;;;;2.20;0.52;;;;;;;;;;5043151;28;20033;-66
2023/10/29 05:56:20;;;;;;;2.70;0.40;;;;;;;;;;5041194;28;20056;-66
2023/10/29 05:58:46;;;;;;;2.20;0.57;;;;;;;;;;5043932;28;20033;-65
2023/10/29 06:01:12;;;;;;;3.08;0.82;;;;;;;;;;5043354;28;20401;-65
2023/10/29 06:03:39;;;;;;;5.85;0.50;;;;;;;;;;5044045;28;20055;-66
2023/10/29 06:06:05;;;;;;;1.90;0.40;;;;;;;;;;5043512;28;20128;-66
2023/10/29 06:08:31;;;;;;;3.38;0.40;;;;;;;;;;5043556;28;20282;-65
2023/10/29 06:10:57;;;;;;;2.80;0.70;;;;;;;;;;5043562;28;20037;-66
2023/10/29 06:13:23;;;;;;;8.10;0.60;;;;;;;;;;5043417;28;20056;-66
2023/10/29 06:15:49;;;;;;;3.97;0.50;;;;;;;;;;5043297;28;20388;-66
2023/10/29 06:18:16;;;;;;;8.73;0.68;;;;;;;;;;5041759;28;20116;-66
2023/10/29 06:20:42;;;;;;;2.65;0.60;;;;;;;;;;5009964;28;20061;-66
2023/10/29 06:23:09;;;;;;;7.15;0.50;;;;;;;;;;5040188;28;20183;-66
2023/10/29 06:25:35;;;;;;;3.70;0.40;;;;;;;;;;5043232;28;20685;-66
2023/10/29 06:28:01;;;;;;;3.92;0.50;;;;;;;;;;5038738;28;20399;-66
2023/10/29 06:30:27;;;;;;;2.63;0.40;;;;;;;;;;5035255;28;20037;-67
2023/10/29 06:32:53;;;;;;;3.88;0.50;;;;;;;;;;5006813;28;20045;-66
2023/10/29 06:35:19;;;;;;;3.47;0.40;;;;;;;;;;5025374;28;20049;-66
2023/10/29 06:37:45;;;;;;;2.88;0.60;;;;;;;;;;5027014;28;20026;-66
2023/10/29 06:40:11;;;;;;;2.33;0.45;;;;;;;;;;5009987;28;20223;-66
2023/10/29 06:42:38;;;;;;;2.00;0.47;;;;;;;;;;5022234;28;20518;-66
2023/10/29 06:45:04;;;;;;;6.13;0.40;;;;;;;;;;5028542;28;20119;-66
2023/10/29 06:47:30;;;;;;;5.20;0.60;;;;;;;;;;5034195;28;20044;-66
2023/10/29 06:49:56;;;;;;;2.15;0.45;;;;;;;;;;5024834;28;20033;-66
2023/10/29 06:52:22;;;;;;;4.53;0.40;;;;;;;;;;5025541;28;20099;-66
2023/10/29 06:54:48;;;;;;;4.88;0.40;;;;;;;;;;5026808;28;20406;-66
2023/10/29 06:57:14;;;;;;;1.50;0.40;;;;;;;;;;5023552;28;20049;-65
2023/10/29 06:59:40;;;;;;;5.93;0.60;;;;;;;;;;5023094;28;20107;-65
2023/10/29 07:02:07;;;;;;;2.80;0.50;;;;;;;;;;5034346;28;20056;-64
2023/10/29 07:04:33;;;;;;;2.15;0.45;;;;;;;;;;5024810;28;20045;-64
2023/10/29 07:06:59;;;;;;;1.20;0.40;;;;;;;;;;5031412;28;20051;-65
2023/10/29 07:09:25;;;;;;;3.47;0.40;;;;;;;;;;5029940;28;20045;-65
2023/10/29 07:11:51;;;;;;;5.10;0.52;;;;;;;;;;5022814;28;20129;-66
2023/10/29 07:14:18;;;;;;;2.28;0.50;;;;;;;;;;5030280;28;20041;-65
2023/10/29 07:16:44;;;;;;;6.78;0.50;;;;;;;;;;5014016;28;20048;-65
2023/10/29 07:19:14;;;;;;;5.85;0.70;;;;;;;;;;5042073;28;20072;-65
2023/10/29 07:21:40;;;;;;;3.17;0.50;;;;;;;;;;5041057;28;20410;-66
2023/10/29 07:24:09;;;;;;;1.65;0.60;;;;;;;;;;5041303;28;20041;-68
2023/10/29 07:26:35;;;;;;;2.70;0.73;;;;;;;;;;5040990;28;20041;-66
2023/10/29 07:29:01;;;;;;;5.13;0.80;;;;;;;;;;5041465;28;20045;-66
2023/10/29 07:31:27;;;;;;;2.05;0.40;;;;;;;;;;5017187;28;20067;-65
2023/10/29 07:33:53;;;;;;;3.33;0.40;;;;;;;;;;5016413;28;20153;-66
2023/10/29 07:36:23;;;;;;;2.10;0.60;;;;;;;;;;5013855;28;20055;-65
2023/10/29 07:38:49;;;;;;;7.60;0.52;;;;;;;;;;5030398;28;20903;-65
2023/10/29 07:41:21;;;;;;;5.40;0.77;;;;;;;;;;5031789;28;20049;-65
2023/10/29 07:43:48;;;;;;;7.65;0.70;;;;;;;;;;5021665;28;20045;-66
2023/10/29 07:46:15;;;;;;;5.07;0.50;;;;;;;;;;5032040;28;20052;-65
2023/10/29 07:48:41;;;;;;;3.42;0.45;;;;;;;;;;5038839;28;20038;-66
2023/10/29 07:51:10;;;;;;;7.88;0.65;;;;;;;;;;5023434;28;20048;-68
2023/10/29 07:53:36;;;;;;;3.33;0.45;;;;;;;;;;5034753;28;20119;-67
2023/10/29 07:56:08;;;;;;;3.25;0.40;;;;;;;;;;5039801;28;20153;-68
2023/10/29 07:58:34;;;;;;;2.13;0.63;;;;;;;;;;5040705;28;20052;-68
2023/10/29 08:01:00;;;;;;;5.15;0.55;;;;;;;;;;5036035;28;20951;-67
2023/10/29 08:03:26;;;;;;;2.53;0.52;;;;;;;;;;5039133;28;20779;-67
2023/10/29 08:05:53;;;;;;;4.30;0.82;;;;;;;;;;5042217;28;20048;-67
2023/10/29 08:08:19;;;;;;;3.25;0.47;;;;;;;;;;5041735;28;20072;-65
2023/10/29 08:10:45;;;;;;;1.85;0.40;;;;;;;;;;5042717;28;20072;-65
2023/10/29 08:13:11;;;;;;;2.60;0.55;;;;;;;;;;5041908;28;20608;-65
2023/10/29 08:15:37;;;;;;;4.22;0.40;;;;;;;;;;5042364;28;20041;-65
2023/10/29 08:18:04;;;;;;;5.00;0.70;;;;;;;;;;5036404;28;20065;-66
2023/10/29 08:20:30;;;;;;;3.03;0.50;;;;;;;;;;5037546;28;20032;-66
2023/10/29 08:22:56;;;;;;;2.60;0.50;;;;;;;;;;5042034;28;20122;-65
2023/10/29 08:25:22;;;;;;;2.45;0.50;;;;;;;;;;5042054;28;20084;-65
2023/10/29 08:27:48;;;;;;;5.22;0.50;;;;;;;;;;5041246;28;20090;-66
2023/10/29 08:30:14;;;;;;;4.45;0.60;;;;;;;;;;5042403;28;20410;-66
2023/10/29 08:32:40;;;;;;;3.75;0.57;;;;;;;;;;5041697;28;20045;-66
2023/10/29 08:35:07;;;;;;;2.60;0.47;;;;;;;;;;5041873;28;20045;-66
2023/10/29 08:37:36;;;;;;;3.95;0.70;;;;;;;;;;5042072;28;20088;-66
2023/10/29 08:40:02;;;;;;;3.80;0.60;;;;;;;;;;5027472;28;20045;-66
2023/10/29 08:42:32;;;;;;;2.72;0.50;;;;;;;;;;5029726;28;20060;-66
2023/10/29 08:44:58;;;;;;;3.58;0.50;;;;;;;;;;5040026;28;20049;-66
2023/10/29 08:47:24;;;;;;;7.18;0.75;;;;;;;;;;5032352;28;20076;-65
2023/10/29 08:49:50;;;;;;;5.43;0.35;;;;;;;;;;5041740;28;20045;-68
2023/10/29 08:52:17;;;;;;;3.40;0.50;;;;;;;;;;5035702;28;20045;-65
2023/10/29 08:54:43;;;;;;;3.80;0.73;;;;;;;;;;5041743;28;20044;-66
2023/10/29 08:57:09;;;;;;;3.25;0.40;;;;;;;;;;5040660;28;20092;-66
2023/10/29 08:59:35;;;;;;;4.80;0.50;;;;;;;;;;5041721;28;20494;-66
2023/10/29 09:02:01;;;;;;;4.40;0.45;;;;;;;;;;5023633;28;20069;-66
2023/10/29 09:04:27;;;;;;;4.70;0.50;;;;;;;;;;5007032;28;20053;-66
2023/10/29 09:06:53;;;;;;;3.95;0.60;;;;;;;;;;5041747;28;20108;-66
2023/10/29 09:09:19;;;;;;;14.52;0.65;;;;;;;;;;5040959;28;20557;-66
2023/10/29 09:11:46;;;;;;;3.53;0.60;;;;;;;;;;5041169;28;20084;-66
2023/10/29 09:14:13;;;;;;;3.00;0.40;;;;;;;;;;5041465;28;20045;-66
2023/10/29 09:16:39;;;;;;;5.53;0.85;;;;;;;;;;5041508;28;20426;-66
2023/10/29 09:19:06;;;;;;;5.53;0.75;;;;;;;;;;5031794;28;20037;-66
2023/10/29 09:21:32;;;;;;;3.72;0.50;;;;;;;;;;5041574;28;20056;-66
2023/10/29 09:23:58;;;;;;;7.40;0.88;;;;;;;;;;5040660;28;20048;-66
2023/10/29 09:26:24;;;;;;;6.13;0.80;;;;;;;;;;5039894;28;20272;-66
2023/10/29 09:28:50;;;;;;;3.58;0.60;;;;;;;;;;5022841;28;20045;-66
2023/10/29 09:31:16;;;;;;;7.35;1.00;;;;;;;;;;5041782;28;20048;-66
2023/10/29 09:33:43;;;;;;;3.55;0.95;;;;;;;;;;5022540;28;20135;-66
2023/10/29 09:36:09;;;;;;;5.60;0.85;;;;;;;;;;5023130;28;20068;-66
2023/10/29 09:38:35;;;;;;;8.27;0.80;;;;;;;;;;5040556;28;20033;-65
2023/10/29 09:41:01;;;;;;;7.10;0.98;;;;;;;;;;5039981;28;20067;-65
2023/10/29 09:43:30;;;;;;;6.80;0.70;;;;;;;;;;5041316;28;20033;-66
2023/10/29 09:45:56;;;;;;;6.95;0.95;;;;;;;;;;5040991;28;20553;-66
2023/10/29 09:48:23;;;;;;;4.88;0.90;;;;;;;;;;5041200;28;20041;-66
2023/10/29 09:50:49;;;;;;;8.30;1.05;;;;;;;;;;5040551;28;20132;-66
2023/10/29 09:53:15;;;;;;;5.22;0.90;;;;;;;;;;5041473;28;20167;-66
2023/10/29 09:55:42;;;;;;;3.97;0.70;;;;;;;;;;5038700;28;20048;-66
2023/10/29 09:58:09;;;;;;;5.35;0.95;;;;;;;;;;5022311;28;20502;-65
2023/10/29 10:00:36;;;;;;;3.30;0.80;;;;;;;;;;5039510;28;20114;-66
2023/10/29 10:03:02;;;;;;;6.78;1.20;;;;;;;;;;5039672;28;20546;-66
2023/10/29 10:05:29;;;;;;;4.70;0.82;;;;;;;;;;5039232;28;20317;-66
2023/10/29 10:07:56;;;;;;;2.88;1.15;;;;;;;;;;5040080;28;20056;-66
2023/10/29 10:10:22;;;;;;;6.35;0.88;;;;;;;;;;5040594;28;20041;-65
2023/10/29 10:12:49;;;;;;;7.60;1.17;;;;;;;;;;5040150;28;20049;-66
2023/10/29 10:15:19;;;;;;;11.75;1.35;;;;;;;;;;5041385;28;20080;-66
2023/10/29 10:18:11;;;;;;;4.65;1.20;;;;;;;;;;5044169;28;20070;-66
2023/10/29 10:20:37;;;;;;;6.82;1.00;;;;;;;;;;5040178;28;20057;-66
2023/10/29 10:23:09;;;;;;;5.10;0.82;;;;;;;;;;5026241;28;20487;-66
2023/10/29 10:25:35;;;;;;;8.32;1.02;;;;;;;;;;5043998;28;20152;-66
2023/10/29 10:28:03;;;;;;;7.30;0.85;;;;;;;;;;5043694;28;20093;-66
2023/10/29 10:30:38;;;;;;;7.82;1.15;;;;;;;;;;5044351;28;20053;-66
2023/10/29 10:33:12;;;;;;;7.75;1.20;;;;;;;;;;5044624;28;20041;-66
2023/10/29 10:35:41;;;;;;;5.15;1.20;;;;;;;;;;5031427;28;20037;-66
2023/10/29 10:38:08;;;;;;;4.10;0.90;;;;;;;;;;5043851;28;20092;-66
2023/10/29 10:40:34;;;;;;;6.95;0.80;;;;;;;;;;5043640;28;20037;-66
2023/10/29 10:43:01;;;;;;;7.15;1.00;;;;;;;;;;5044064;28;20083;-66
2023/10/29 10:45:29;;;;;;;8.77;1.08;;;;;;;;;;5044173;28;20048;-66
2023/10/29 10:48:00;;;;;;;6.75;0.88;;;;;;;;;;5043918;28;20049;-67
2023/10/29 10:50:27;;;;;;;10.40;1.17;;;;;;;;;;5044142;28;20052;-66
2023/10/29 10:52:53;;;;;;;7.63;0.98;;;;;;;;;;5043995;28;20037;-66
2023/10/29 10:55:20;;;;;;;7.45;1.13;;;;;;;;;;5043985;28;20045;-66
2023/10/29 10:57:47;;;;;;;11.50;1.17;;;;;;;;;;5042814;28;20490;-66
2023/10/29 11:00:14;;;;;;;6.75;1.55;;;;;;;;;;5026076;28;20052;-66
2023/10/29 11:02:40;;;;;;;11.18;1.38;;;;;;;;;;5043184;28;20033;-66
2023/10/29 11:05:10;;;;;;;14.75;1.20;;;;;;;;;;5043966;28;20044;-66
2023/10/29 11:07:37;;;;;;;6.22;1.10;;;;;;;;;;5043462;28;20041;-66
2023/10/29 11:10:04;;;;;;;7.47;1.20;;;;;;;;;;5043715;28;20056;-66
2023/10/29 11:12:33;;;;;;;9.18;1.10;;;;;;;;;;5042774;28;20135;-66
2023/10/29 11:15:12;;;;;;;8.88;1.42;;;;;;;;;;5043398;28;20345;-66
2023/10/29 11:17:58;;;;;;;9.77;1.30;;;;;;;;;;5042946;28;20789;-66
2023/10/29 11:20:39;;;;;;;6.35;0.93;;;;;;;;;;5043667;28;20053;-66
2023/10/29 11:23:08;;;;;;;6.78;1.15;;;;;;;;;;5043705;28;20041;-66
2023/10/29 11:25:36;;;;;;;9.40;1.02;;;;;;;;;;5042779;28;20049;-66
2023/10/29 11:28:02;;;;;;;13.43;1.02;;;;;;;;;;5041968;28;20047;-65
2023/10/29 11:30:28;;;;;;;6.05;0.88;;;;;;;;;;5043459;28;20106;-65
2023/10/29 11:33:07;;;;;;;8.85;1.23;;;;;;;;;;5043527;28;20041;-66
2023/10/29 11:35:33;;;;;;;6.70;0.85;;;;;;;;;;5029379;28;20040;-66
2023/10/29 11:38:00;;;;;;;10.60;1.33;;;;;;;;;;5043311;28;20048;-65
2023/10/29 11:40:26;;;;;;;4.53;0.65;;;;;;;;;;5042337;28;20047;-66
2023/10/29 11:42:57;;;;;;;10.15;1.20;;;;;;;;;;5043241;28;20041;-66
2023/10/29 11:45:28;;;;;;;6.25;0.80;;;;;;;;;;5042465;28;20106;-66
2023/10/29 11:48:10;;;;;;;5.78;0.80;;;;;;;;;;5043683;28;20080;-65
2023/10/29 11:50:40;;;;;;;7.10;0.95;;;;;;;;;;5042084;28;20037;-66
2023/10/29 11:53:07;;;;;;;12.43;0.88;;;;;;;;;;5043107;28;20056;-66
2023/10/29 11:55:42;;;;;;;6.03;0.80;;;;;;;;;;5041745;28;20049;-66
2023/10/29 11:58:08;;;;;;;7.20;1.00;;;;;;;;;;5042584;28;20110;-66
2023/10/29 12:00:40;;;;;;;7.18;0.80;;;;;;;;;;5025113;28;20056;-66
2023/10/29 12:03:08;;;;;;;3.35;0.90;;;;;;;;;;5042367;28;20549;-66
2023/10/29 12:05:34;;;;;;;8.63;0.80;;;;;;;;;;5042183;28;20049;-66
2023/10/29 12:08:00;;;;;;;9.73;0.98;;;;;;;;;;5042359;28;20363;-66
2023/10/29 12:10:26;;;;;;;9.15;0.80;;;;;;;;;;5041825;28;20085;-66
2023/10/29 12:12:53;;;;;;;6.55;0.77;;;;;;;;;;5042294;28;20407;-66
2023/10/29 12:15:19;;;;;;;6.68;0.85;;;;;;;;;;5042537;28;20049;-66
2023/10/29 12:17:46;;;;;;;5.72;0.70;;;;;;;;;;5042000;28;20033;-66
2023/10/29 12:20:29;;;;;;;6.63;0.90;;;;;;;;;;5042576;28;20055;-66
2023/10/29 12:22:57;;;;;;;10.75;1.38;;;;;;;;;;5042221;28;20577;-66
2023/10/29 12:25:23;;;;;;;5.85;0.70;;;;;;;;;;5041753;28;20089;-66
2023/10/29 12:27:50;;;;;;;10.55;0.85;;;;;;;;;;5042174;28;20060;-66
2023/10/29 12:30:56;;;;;;;7.93;1.30;;;;;;;;;;5041918;28;20499;-66
2023/10/29 12:33:26;;;;;;;7.80;0.82;;;;;;;;;;4960082;28;20122;-66
2023/10/29 12:35:53;;;;;;;8.45;0.70;;;;;;;;;;4960921;28;20108;-66
2023/10/29 12:38:19;;;;;;;9.55;0.93;;;;;;;;;;5001626;28;20057;-66
2023/10/29 12:41:08;;;;;;;9.95;0.90;;;;;;;;;;5041400;28;20178;-66
2023/10/29 12:43:35;;;;;;;7.22;0.80;;;;;;;;;;5041876;28;20128;-66
2023/10/29 12:46:02;;;;;;;9.85;1.15;;;;;;;;;;5042219;28;20037;-66
2023/10/29 12:48:28;;;;;;;9.52;0.90;;;;;;;;;;5023908;28;20128;-66
2023/10/29 12:50:55;;;;;;;11.15;0.98;;;;;;;;;;5041978;28;20082;-66
2023/10/29 12:53:21;;;;;;;8.57;0.73;;;;;;;;;;5041846;28;20056;-66
2023/10/29 12:55:47;;;;;;;9.60;1.23;;;;;;;;;;5041105;28;20105;-66
2023/10/29 12:58:13;;;;;;;12.38;1.70;;;;;;;;;;5041284;28;20045;-66
2023/10/29 13:00:39;;;;;;;9.40;0.90;;;;;;;;;;5041626;28;20049;-66
2023/10/29 13:03:05;;;;;;;10.70;1.00;;;;;;;;;;5041528;28;20063;-66
2023/10/29 13:05:31;;;;;;;12.02;1.30;;;;;;;;;;5042039;28;20041;-66
2023/10/29 13:07:57;;;;;;;9.48;1.65;;;;;;;;;;5041604;28;20079;-66
2023/10/29 13:10:24;;;;;;;8.13;0.80;;;;;;;;;;5040949;28;20128;-66
2023/10/29 13:12:50;;;;;;;12.88;1.13;;;;;;;;;;5040695;28;20045;-66
2023/10/29 13:15:18;;;;;;;9.68;0.98;;;;;;;;;;5041654;28;20124;-66
2023/10/29 13:17:44;;;;;;;9.33;0.80;;;;;;;;;;5023482;28;20044;-66
2023/10/29 13:20:11;;;;;;;12.50;1.00;;;;;;;;;;5041277;28;20053;-66
2023/10/29 13:22:40;;;;;;;5.60;1.07;;;;;;;;;;5041226;28;20041;-66
2023/10/29 13:25:07;;;;;;;9.82;1.02;;;;;;;;;;5041119;28;20059;-66
2023/10/29 13:27:33;;;;;;;13.70;1.15;;;;;;;;;;5041247;28;20037;-66
2023/10/29 13:29:59;;;;;;;10.00;1.13;;;;;;;;;;5041829;28;20053;-66
2023/10/29 13:32:25;;;;;;;11.48;1.20;;;;;;;;;;5041470;28;20045;-65
2023/10/29 13:34:53;;;;;;;11.05;0.73;;;;;;;;;;5041320;28;20036;-65
2023/10/29 13:37:19;;;;;;;11.35;0.95;;;;;;;;;;5041090;28;20411;-66
2023/10/29 13:39:45;;;;;;;10.98;0.90;;;;;;;;;;5041660;28;20579;-66
2023/10/29 13:42:11;;;;;;;13.55;1.55;;;;;;;;;;5039992;28;20156;-66
2023/10/29 13:44:40;;;;;;;8.38;0.77;;;;;;;;;;5041162;28;20130;-65
2023/10/29 13:47:06;;;;;;;11.93;1.65;;;;;;;;;;5041180;28;20045;-66
2023/10/29 13:49:32;;;;;;;8.77;0.90;;;;;;;;;;5041474;28;20099;-66
2023/10/29 13:51:58;;;;;;;9.90;0.93;;;;;;;;;;5044228;28;20041;-66
2023/10/29 13:54:24;;;;;;;12.75;1.13;;;;;;;;;;5045045;28;20435;-66
2023/10/29 13:56:50;;;;;;;3.42;0.93;;;;;;;;;;5026091;28;20936;-66
2023/10/29 13:59:16;;;;;;;12.07;1.35;;;;;;;;;;5044397;28;20041;-66
2023/10/29 14:01:43;;;;;;;10.70;1.00;;;;;;;;;;5044661;28;20033;-65
2023/10/29 14:04:09;;;;;;;8.43;0.95;;;;;;;;;;5044799;28;20080;-66
2023/10/29 14:06:35;;;;;;;9.02;1.00;;;;;;;;;;5045336;28;20045;-66
2023/10/29 14:09:02;;;;;;;8.20;0.85;;;;;;;;;;5044625;28;20055;-65
2023/10/29 14:11:28;;;;;;;14.43;1.45;;;;;;;;;;5044291;28;20050;-66
2023/10/29 14:13:56;;;;;;;9.10;1.00;;;;;;;;;;5044175;28;20138;-66
2023/10/29 14:16:38;;;;;;;8.88;1.10;;;;;;;;;;5044893;28;20084;-66
2023/10/29 14:19:07;;;;;;;10.50;1.17;;;;;;;;;;5044426;28;20052;-66
2023/10/29 14:21:34;;;;;;;8.38;1.30;;;;;;;;;;5026684;28;20060;-66
2023/10/29 14:24:03;;;;;;;7.05;0.73;;;;;;;;;;5043344;28;20490;-66
2023/10/29 14:26:29;;;;;;;6.13;0.90;;;;;;;;;;5043737;28;20041;-66
2023/10/29 14:28:55;;;;;;;6.07;0.90;;;;;;;;;;5043082;28;20743;-66
2023/10/29 14:31:21;;;;;;;5.93;0.82;;;;;;;;;;5044117;28;20037;-66
2023/10/29 14:33:49;;;;;;;7.60;0.93;;;;;;;;;;5043497;28;20041;-66
2023/10/29 14:36:15;;;;;;;;;;;;;;;;;;5044114;28;20092;-65
2023/10/29 14:38:41;;;;;;;6.88;0.80;;;;;;;;;;5043414;28;19975;-66
2023/10/29 14:41:07;;;;;;;16.10;1.17;;;;;;;;;;5043955;28;20183;-65